Air Navigation Services of Czech Republic
Airport: LKKV Updated:  28.10.2020 05:08:25  UTC
 METAR LKKV 28.10. 05:00 ...
METAR LKKV 280500Z 19003KT 130V270 CAVOK 05/02 Q1011 RMK REG QNH 1009=
 TAF LKKV 28.10. 05:00 ...
TAF LKKV 280500Z 2806/2912 21008KT 9999 SCT026      BECMG 2806/2807 BKN020      TEMPO 2807/2812 -RA BKN010      PROB30 TEMPO 2807/2810 4000 RA BR BKN005      TEMPO 2812/2816 25012G22KT -SHRA BKN010      TEMPO 2816/2822 24010G20KT SCT026      TEMPO 2823/2912 27010G20KT 7000 -RA BKN014      PROB30 TEMPO 2906/2910 3000 RA OVC005=